Grodno, Belarus

7:07 PM +03 on August 23, 2017 (GMT +0300)
Grodno | | Change Station

Elev 443 ft 53.60 °N, 24.05 °E | Updated 1 hour ago

Light Rain Showers
Light Showers Rain
66 °F
Feels Like 66 °F
N
18
Wind Variable Wind from WNW
Gusts 29 mph

Today
High -- | Low -- °F
--% Chance of Precip.
Yesterday
High -- | Low -- °F
Precip. -- in
Pressure 29.83 in
Visibility 5.0 miles
Clouds Mostly Cloudy 2600 ft
Mostly Cloudy 6600 ft
Dew Point 52 °F
Humidity 60%
Rainfall 0.00 in
Snow Depth Not available.
6:17 AM 8:34 PM
Waxing Crescent, 5% visible
SPECI UMMG 231507Z 30008G13MPS 8000 -SHRA BKN026CB BKN066 19/11 Q1010 NOSIG
Pressure 29.83 in
Visibility 5.0 miles
Clouds Mostly Cloudy 2600 ft
Mostly Cloudy 6600 ft
Dew Point 52 °F
Humidity 60%
Rainfall 0.00 in
Snow Depth Not available.
6:17 AM 8:34 PM
Waxing Crescent, 5% visible
SPECI UMMG 231507Z 30008G13MPS 8000 -SHRA BKN026CB BKN066 19/11 Q1010 NOSIG

Get Severe Weather Alerts

Thanks for signing up!

Be on the lookout for a verification email in your inbox.

You'll start receiving the daily forecast at 6 AM.

×

10-Day Weather Forecast

×

Almanac

Astronomy

Aug. 23, 2017 Rise Set
Actual Time
Civil Twilight
Nautical Twilight
Astronomical Twilight
Moon
Length of Visible Light
Length of Day
Tomorrow will be .
, % of the Moon is Illuminated

Today's Extremes

Country Highs Country Lows

Community

WunderPhotos

Category 6

Welcome to Category 6. This is the collective home for Weather Underground's featured writeups by Dr. Jeff Masters (right), Bob Henson (left), Chris Burt, and other regular contributors.

Nearby

Air Quality

  Air Quality AQ Index Pollutant
Not available.

Snow Depth

Station Depth Elevation

Earthquake Activity

City Distance Mag. Time & Date
Minimum magnitude displayed is 2.5.

Coastal Water Temperatures

Place Temperature

Stations

Nearby Weather Stations

Station Location Temp. Windchill Dew Point Humidity Wind Precip. Elev Updated Type